Time;durP1;ratioP1;P1;durP2;ratioP2;P2;SDS_P1;SDS_P2;PMS_P1;PMS_P2;Temp;Humidity;BMP_temperature;BMP_pressure;BME280_temperature;BME280_humidity;BME280_pressure;Samples;Min_cycle;Max_cycle;Signal;HPM_P1;HPM_P2
2022/04/22 00:03:34;;;;;;;22.25;18.40;;;;;;;;;;12686069;23;20204;-69
2022/04/22 00:08:36;;;;;;;26.48;19.58;;;;;;;;;;12664101;23;20627;-69
2022/04/22 00:13:37;;;;;;;23.27;18.00;;;;;;;;;;12663529;23;20187;-69
2022/04/22 00:18:38;;;;;;;25.10;20.75;;;;;;;;;;12662492;23;20195;-70
2022/04/22 00:23:40;;;;;;;26.73;20.73;;;;;;;;;;12662810;23;20564;-70
2022/04/22 00:28:41;;;;;;;24.63;20.73;;;;;;;;;;12663181;23;20223;-69
2022/04/22 00:33:42;;;;;;;30.02;22.92;;;;;;;;;;12663298;23;20661;-70
2022/04/22 00:38:43;;;;;;;31.48;22.92;;;;;;;;;;12687011;23;20251;-69
2022/04/22 00:43:45;;;;;;;30.55;23.33;;;;;;;;;;12661336;23;20291;-70
2022/04/22 00:48:46;;;;;;;33.03;24.13;;;;;;;;;;12660857;23;20176;-71
2022/04/22 00:53:49;;;;;;;36.22;24.98;;;;;;;;;;12658160;23;20647;-69
2022/04/22 00:58:51;;;;;;;34.65;24.13;;;;;;;;;;12662423;23;20197;-69
2022/04/22 01:14:32;;;;;;;33.72;24.42;;;;;;;;;;12662541;23;20243;-69
2022/04/22 01:19:33;;;;;;;31.45;22.77;;;;;;;;;;12663611;23;20217;-69
2022/04/22 01:24:35;;;;;;;31.27;22.38;;;;;;;;;;12684687;23;20200;-69
2022/04/22 01:29:36;;;;;;;30.80;20.90;;;;;;;;;;12660865;23;20185;-69
2022/04/22 01:34:38;;;;;;;24.80;18.55;;;;;;;;;;12660751;23;20207;-69
2022/04/22 01:39:39;;;;;;;23.10;18.45;;;;;;;;;;12661744;23;20713;-70
2022/04/22 01:44:41;;;;;;;20.83;17.42;;;;;;;;;;12681380;23;20204;-70
2022/04/22 01:49:42;;;;;;;24.27;17.35;;;;;;;;;;12660030;23;20177;-69
2022/04/22 01:54:43;;;;;;;18.85;16.15;;;;;;;;;;12661001;23;20263;-69
2022/04/22 01:59:46;;;;;;;13.43;12.13;;;;;;;;;;12661684;23;20192;-69
2022/04/22 02:04:47;;;;;;;9.85;8.88;;;;;;;;;;12657137;23;20197;-69
2022/04/22 02:09:49;;;;;;;8.63;7.15;;;;;;;;;;12661038;23;20270;-69
2022/04/22 02:14:50;;;;;;;6.68;5.88;;;;;;;;;;12659593;23;20184;-69
2022/04/22 02:19:51;;;;;;;6.20;5.60;;;;;;;;;;12659612;23;20292;-69
2022/04/22 02:24:52;;;;;;;6.93;5.03;;;;;;;;;;12630950;23;20177;-69
2022/04/22 02:29:53;;;;;;;5.80;4.22;;;;;;;;;;12661101;23;20191;-69
2022/04/22 02:34:54;;;;;;;5.55;3.90;;;;;;;;;;12659877;23;20201;-70
2022/04/22 02:39:55;;;;;;;3.55;3.22;;;;;;;;;;12660158;23;20211;-69
2022/04/22 02:50:16;;;;;;;5.47;3.65;;;;;;;;;;12660827;23;20215;-69
2022/04/22 02:55:17;;;;;;;3.42;3.22;;;;;;;;;;12659175;23;20187;-69
2022/04/22 03:00:19;;;;;;;3.20;3.00;;;;;;;;;;12658517;23;20674;-69
2022/04/22 03:05:21;;;;;;;2.97;2.72;;;;;;;;;;12658112;23;20619;-69
2022/04/22 03:10:22;;;;;;;2.97;2.67;;;;;;;;;;12661118;23;20235;-69
2022/04/22 03:15:23;;;;;;;2.92;2.70;;;;;;;;;;12662836;23;20575;-69
2022/04/22 03:20:25;;;;;;;3.60;3.03;;;;;;;;;;12660504;23;20193;-69
2022/04/22 03:25:26;;;;;;;4.40;3.10;;;;;;;;;;12659795;23;20173;-68
2022/04/22 03:30:27;;;;;;;3.20;3.00;;;;;;;;;;12662106;23;20284;-69
2022/04/22 03:35:28;;;;;;;2.92;2.75;;;;;;;;;;12663100;23;20191;-69
2022/04/22 03:40:29;;;;;;;4.47;2.63;;;;;;;;;;12660538;23;20288;-69
2022/04/22 03:45:30;;;;;;;3.15;2.95;;;;;;;;;;12602157;23;20185;-69
2022/04/22 03:50:31;;;;;;;3.00;2.65;;;;;;;;;;12602919;23;20856;-69
2022/04/22 03:55:33;;;;;;;4.55;2.60;;;;;;;;;;12602772;23;20534;-69
2022/04/22 04:00:34;;;;;;;4.35;3.20;;;;;;;;;;12600717;23;20197;-69
2022/04/22 04:05:35;;;;;;;2.80;2.60;;;;;;;;;;12601708;23;20181;-70
2022/04/22 04:15:59;;;;;;;5.18;2.85;;;;;;;;;;12598646;23;20716;-68
2022/04/22 04:26:21;;;;;;;2.97;2.75;;;;;;;;;;12603281;23;20189;-69
2022/04/22 04:31:23;;;;;;;3.28;3.05;;;;;;;;;;12601806;23;20201;-69
2022/04/22 04:36:24;;;;;;;4.55;2.92;;;;;;;;;;12601605;23;20186;-69
2022/04/22 04:41:25;;;;;;;3.55;3.05;;;;;;;;;;12615907;23;20204;-69
2022/04/22 04:46:26;;;;;;;3.10;2.90;;;;;;;;;;12661626;23;20558;-69
2022/04/22 04:51:27;;;;;;;5.90;3.25;;;;;;;;;;12661633;23;20528;-68
2022/04/22 04:56:28;;;;;;;7.28;3.72;;;;;;;;;;12637892;23;20212;-69
2022/04/22 05:01:29;;;;;;;6.35;3.67;;;;;;;;;;12660360;23;20259;-69
2022/04/22 05:06:30;;;;;;;4.38;3.70;;;;;;;;;;12662729;23;20181;-69
2022/04/22 05:11:31;;;;;;;7.65;3.95;;;;;;;;;;12662985;23;20796;-70
2022/04/22 05:16:32;;;;;;;3.45;3.05;;;;;;;;;;12661429;23;20251;-69
2022/04/22 05:21:33;;;;;;;3.90;3.47;;;;;;;;;;12637181;23;20279;-70
2022/04/22 05:26:34;;;;;;;4.07;3.60;;;;;;;;;;12661092;23;20208;-69
2022/04/22 05:36:55;;;;;;;3.75;3.45;;;;;;;;;;12661843;23;20200;-69
2022/04/22 05:41:56;;;;;;;4.90;3.35;;;;;;;;;;12660957;23;20200;-69
2022/04/22 05:46:57;;;;;;;4.07;3.65;;;;;;;;;;12635903;23;20196;-70
2022/04/22 05:51:58;;;;;;;4.85;3.15;;;;;;;;;;12662308;23;20216;-70
2022/04/22 05:57:00;;;;;;;4.53;4.05;;;;;;;;;;12660110;23;20244;-69
2022/04/22 06:02:01;;;;;;;5.38;4.30;;;;;;;;;;12660140;23;20219;-70
2022/04/22 06:07:02;;;;;;;9.25;4.93;;;;;;;;;;12659583;23;20614;-70
2022/04/22 06:12:03;;;;;;;9.60;4.82;;;;;;;;;;12660830;23;20184;-70
2022/04/22 06:17:04;;;;;;;5.25;4.85;;;;;;;;;;12632542;23;20278;-70
2022/04/22 06:22:05;;;;;;;9.60;5.18;;;;;;;;;;12659064;23;20215;-70
2022/04/22 06:27:06;;;;;;;7.03;6.25;;;;;;;;;;12658651;23;20275;-69
2022/04/22 06:32:08;;;;;;;9.18;5.15;;;;;;;;;;12627286;23;20199;-70
2022/04/22 06:37:11;;;;;;;7.95;5.55;;;;;;;;;;12658653;23;20680;-65
2022/04/22 06:47:31;;;;;;;7.97;6.63;;;;;;;;;;12659413;23;20185;-70
2022/04/22 06:52:33;;;;;;;9.77;5.90;;;;;;;;;;12657841;23;20259;-70
2022/04/22 06:57:35;;;;;;;9.27;6.55;;;;;;;;;;12656054;23;20634;-70
2022/04/22 07:02:37;;;;;;;9.93;6.80;;;;;;;;;;12655933;23;20200;-70
2022/04/22 07:07:38;;;;;;;11.35;7.10;;;;;;;;;;12634743;23;20248;-70
2022/04/22 07:12:39;;;;;;;11.32;7.55;;;;;;;;;;12657763;23;20181;-71
2022/04/22 07:17:41;;;;;;;10.68;8.13;;;;;;;;;;12655030;23;20264;-70
2022/04/22 07:22:43;;;;;;;9.80;8.88;;;;;;;;;;12658354;23;20185;-70
2022/04/22 07:27:46;;;;;;;9.90;8.52;;;;;;;;;;12655974;23;20180;-70
2022/04/22 07:32:49;;;;;;;13.57;8.82;;;;;;;;;;12655247;23;20267;-70
2022/04/22 07:37:51;;;;;;;9.07;8.15;;;;;;;;;;12658152;23;20952;-69
2022/04/22 07:48:15;;;;;;;11.32;8.68;;;;;;;;;;12657324;23;20192;-69
2022/04/22 07:53:17;;;;;;;10.30;9.25;;;;;;;;;;12656067;23;20192;-70
2022/04/22 07:58:19;;;;;;;11.48;8.85;;;;;;;;;;12635728;23;20216;-70
2022/04/22 08:03:20;;;;;;;10.80;9.70;;;;;;;;;;12658226;23;20207;-69
2022/04/22 08:08:21;;;;;;;11.18;9.63;;;;;;;;;;12657631;23;20195;-70
2022/04/22 08:13:24;;;;;;;12.05;9.68;;;;;;;;;;12634083;23;20271;-70
2022/04/22 08:18:26;;;;;;;14.05;12.35;;;;;;;;;;12663525;23;20804;-69
2022/04/22 08:23:27;;;;;;;11.30;10.18;;;;;;;;;;12660952;23;20201;-70
2022/04/22 08:28:29;;;;;;;10.50;9.27;;;;;;;;;;12659530;23;20268;-69
2022/04/22 08:33:30;;;;;;;10.15;8.93;;;;;;;;;;12656762;23;20682;-70
2022/04/22 08:38:31;;;;;;;13.32;9.80;;;;;;;;;;12658689;23;20200;-69
2022/04/22 08:43:33;;;;;;;10.68;9.00;;;;;;;;;;12658908;23;20900;-70
2022/04/22 08:53:55;;;;;;;9.57;8.57;;;;;;;;;;12661098;23;20187;-69
2022/04/22 08:58:56;;;;;;;11.57;9.77;;;;;;;;;;12661893;23;20196;-70
2022/04/22 09:03:57;;;;;;;14.15;9.50;;;;;;;;;;12660364;23;20575;-70
2022/04/22 09:08:59;;;;;;;11.07;8.35;;;;;;;;;;12656358;23;20181;-70
2022/04/22 09:14:02;;;;;;;9.52;8.38;;;;;;;;;;12656697;23;20917;-70
2022/04/22 09:19:03;;;;;;;8.80;7.75;;;;;;;;;;12657615;23;20207;-70
2022/04/22 09:24:14;;;;;;;7.70;7.13;;;;;;;;;;12655606;23;20392;-69
2022/04/22 09:29:15;;;;;;;8.85;8.13;;;;;;;;;;12655879;23;20272;-70
2022/04/22 09:34:32;;;;;;;10.25;7.50;;;;;;;;;;12653373;23;20637;-70
2022/04/22 09:44:55;;;;;;;9.88;7.10;;;;;;;;;;12658330;23;20567;-70
2022/04/22 09:49:57;;;;;;;8.98;6.60;;;;;;;;;;12659905;23;20240;-69
2022/04/22 09:55:02;;;;;;;8.45;6.57;;;;;;;;;;12658254;23;20606;-69
2022/04/22 10:00:03;;;;;;;7.32;6.60;;;;;;;;;;12632499;23;20534;-70
2022/04/22 10:05:07;;;;;;;7.05;6.32;;;;;;;;;;12657211;23;20723;-69
2022/04/22 10:10:09;;;;;;;9.30;6.50;;;;;;;;;;12659041;23;20185;-70
2022/04/22 10:15:11;;;;;;;7.43;6.68;;;;;;;;;;12656065;23;20599;-70
2022/04/22 10:20:12;;;;;;;8.23;6.90;;;;;;;;;;12657892;23;20204;-69
2022/04/22 10:25:13;;;;;;;7.50;6.82;;;;;;;;;;12659271;23;20603;-70
2022/04/22 10:30:15;;;;;;;7.68;7.07;;;;;;;;;;12653911;23;20233;-69
2022/04/22 10:35:16;;;;;;;7.93;7.15;;;;;;;;;;12657541;23;20191;-70
2022/04/22 10:40:18;;;;;;;10.23;7.68;;;;;;;;;;12655455;23;20577;-69
2022/04/22 10:50:42;;;;;;;10.63;7.55;;;;;;;;;;12594700;23;20181;-70
2022/04/22 10:55:43;;;;;;;8.18;7.40;;;;;;;;;;12596131;23;20236;-70
2022/04/22 11:00:45;;;;;;;8.25;7.57;;;;;;;;;;12596439;23;20261;-70
2022/04/22 11:05:47;;;;;;;7.10;6.60;;;;;;;;;;12596783;23;20186;-70
2022/04/22 11:10:48;;;;;;;8.45;7.60;;;;;;;;;;12597945;23;20213;-70
2022/04/22 11:15:51;;;;;;;9.55;7.55;;;;;;;;;;12595128;23;20532;-70
2022/04/22 11:20:59;;;;;;;9.88;8.20;;;;;;;;;;12595306;23;20251;-70
2022/04/22 11:26:00;;;;;;;8.13;7.20;;;;;;;;;;12598966;23;20187;-70
2022/04/22 11:31:03;;;;;;;7.75;7.20;;;;;;;;;;12597205;23;20193;-69
2022/04/22 11:36:05;;;;;;;9.32;8.63;;;;;;;;;;12601442;23;20849;-70
2022/04/22 11:41:11;;;;;;;7.35;6.65;;;;;;;;;;12608763;23;20201;-71
2022/04/22 11:46:13;;;;;;;8.80;8.10;;;;;;;;;;12634468;23;20204;-70
2022/04/22 11:51:19;;;;;;;9.35;8.52;;;;;;;;;;12658190;23;20188;-71
2022/04/22 11:56:21;;;;;;;10.60;9.23;;;;;;;;;;12634495;23;20453;-68
2022/04/22 12:06:43;;;;;;;10.98;9.43;;;;;;;;;;12659680;23;20187;-70
2022/04/22 12:11:44;;;;;;;11.45;10.27;;;;;;;;;;12663068;23;20185;-70
2022/04/22 12:16:54;;;;;;;10.63;9.82;;;;;;;;;;12661019;23;20181;-70
2022/04/22 12:21:55;;;;;;;8.32;7.60;;;;;;;;;;12658663;23;20232;-70
2022/04/22 12:26:56;;;;;;;8.88;8.02;;;;;;;;;;12657254;23;20247;-69
2022/04/22 12:31:57;;;;;;;8.85;8.15;;;;;;;;;;12655983;23;20655;-70
2022/04/22 12:36:59;;;;;;;12.23;8.85;;;;;;;;;;12635220;23;20185;-70
2022/04/22 12:42:01;;;;;;;9.25;8.43;;;;;;;;;;12659485;23;20653;-70
2022/04/22 12:52:29;;;;;;;11.73;8.70;;;;;;;;;;12659449;23;20165;-70
2022/04/22 12:57:30;;;;;;;11.00;9.90;;;;;;;;;;12656072;23;20189;-70
2022/04/22 13:02:33;;;;;;;11.18;9.52;;;;;;;;;;12631811;23;20290;-69
2022/04/22 13:07:44;;;;;;;10.25;9.38;;;;;;;;;;12657205;23;20244;-68
2022/04/22 13:12:46;;;;;;;10.60;9.68;;;;;;;;;;12655988;23;20558;-68
2022/04/22 13:17:48;;;;;;;10.88;9.77;;;;;;;;;;12660872;23;20185;-70
2022/04/22 13:22:49;;;;;;;11.50;10.48;;;;;;;;;;12657703;23;20211;-70
2022/04/22 13:27:50;;;;;;;13.00;11.82;;;;;;;;;;12631914;23;20184;-70
2022/04/22 13:32:51;;;;;;;11.77;10.80;;;;;;;;;;12660217;23;20208;-70
2022/04/22 13:37:53;;;;;;;11.77;10.85;;;;;;;;;;12663445;23;20200;-70
2022/04/22 13:42:54;;;;;;;15.55;11.57;;;;;;;;;;12660094;23;20204;-69
2022/04/22 13:53:15;;;;;;;13.38;11.38;;;;;;;;;;12655733;23;20572;-70
2022/04/22 13:58:17;;;;;;;12.73;10.50;;;;;;;;;;12658849;23;20194;-70
2022/04/22 14:03:19;;;;;;;12.85;11.65;;;;;;;;;;12633543;23;20205;-70
2022/04/22 14:08:20;;;;;;;13.18;11.98;;;;;;;;;;12658877;23;20185;-70
2022/04/22 14:13:22;;;;;;;15.10;12.65;;;;;;;;;;12659069;23;20618;-69
2022/04/22 14:18:23;;;;;;;15.13;13.63;;;;;;;;;;12658096;23;20184;-69
2022/04/22 14:23:24;;;;;;;12.98;11.77;;;;;;;;;;12660379;23;20198;-70
2022/04/22 14:28:26;;;;;;;16.20;12.70;;;;;;;;;;12658969;23;20180;-70
2022/04/22 14:33:27;;;;;;;12.68;11.52;;;;;;;;;;12658878;23;20271;-70
2022/04/22 14:38:28;;;;;;;13.77;12.57;;;;;;;;;;12658727;23;20197;-70
2022/04/22 14:43:29;;;;;;;15.57;14.02;;;;;;;;;;12658272;23;20400;-70
2022/04/22 14:48:30;;;;;;;14.05;12.82;;;;;;;;;;12660358;23;20181;-70
2022/04/22 14:53:32;;;;;;;15.00;12.57;;;;;;;;;;12633890;23;20185;-69
2022/04/22 14:58:33;;;;;;;13.60;12.38;;;;;;;;;;12657990;23;20918;-69
2022/04/22 15:03:34;;;;;;;15.02;13.52;;;;;;;;;;12658005;23;20235;-69
2022/04/22 15:08:35;;;;;;;14.57;13.15;;;;;;;;;;12659500;23;20196;-69
2022/04/22 15:13:36;;;;;;;13.32;11.93;;;;;;;;;;12658321;23;20210;-70
2022/04/22 15:24:09;;;;;;;12.52;11.32;;;;;;;;;;12657355;23;20180;-69
2022/04/22 15:29:15;;;;;;;13.30;12.10;;;;;;;;;;12658290;23;20185;-69
2022/04/22 15:34:18;;;;;;;15.73;11.48;;;;;;;;;;12656516;23;20235;-69
2022/04/22 15:39:20;;;;;;;12.32;11.25;;;;;;;;;;12652744;23;20538;-69
2022/04/22 15:44:26;;;;;;;14.10;11.10;;;;;;;;;;12656708;23;20843;-66
2022/04/22 15:49:27;;;;;;;12.02;10.90;;;;;;;;;;12656877;23;20181;-69
2022/04/22 15:54:28;;;;;;;13.32;11.98;;;;;;;;;;12657898;23;20638;-69
2022/04/22 15:59:29;;;;;;;13.25;11.90;;;;;;;;;;12658346;23;20196;-70
2022/04/22 16:04:30;;;;;;;13.30;12.02;;;;;;;;;;12657804;23;20654;-69
2022/04/22 16:09:31;;;;;;;12.77;11.60;;;;;;;;;;12657417;23;20180;-70
2022/04/22 16:19:52;;;;;;;14.57;13.07;;;;;;;;;;12635442;23;20228;-69
2022/04/22 16:24:53;;;;;;;13.73;12.43;;;;;;;;;;12658987;23;20978;-70
2022/04/22 16:29:54;;;;;;;13.73;12.30;;;;;;;;;;12658076;23;20536;-70
2022/04/22 16:34:55;;;;;;;14.40;12.98;;;;;;;;;;12658921;23;20287;-70
2022/04/22 16:39:56;;;;;;;16.02;13.18;;;;;;;;;;12661339;23;20220;-70
2022/04/22 16:44:58;;;;;;;15.50;14.00;;;;;;;;;;12658491;23;20301;-70
2022/04/22 16:49:59;;;;;;;18.10;14.82;;;;;;;;;;12635058;23;20189;-65
2022/04/22 16:55:00;;;;;;;24.38;20.38;;;;;;;;;;12658591;23;20207;-70
2022/04/22 17:00:01;;;;;;;16.25;14.65;;;;;;;;;;12657814;23;20205;-70
2022/04/22 17:05:04;;;;;;;19.70;16.55;;;;;;;;;;12655964;23;20338;-69
2022/04/22 17:10:06;;;;;;;16.98;15.18;;;;;;;;;;12658762;23;20192;-69
2022/04/22 17:25:47;;;;;;;20.20;17.42;;;;;;;;;;12630300;23;20210;-72
2022/04/22 17:30:48;;;;;;;17.85;15.95;;;;;;;;;;12655191;23;20275;-71
2022/04/22 17:35:49;;;;;;;17.95;15.65;;;;;;;;;;12656097;23;20180;-71
2022/04/22 17:40:50;;;;;;;17.83;16.10;;;;;;;;;;12655821;23;20201;-70
2022/04/22 17:45:51;;;;;;;18.33;15.05;;;;;;;;;;12655160;23;20950;-75
2022/04/22 17:50:52;;;;;;;16.85;15.15;;;;;;;;;;12631343;23;20185;-69
2022/04/22 17:55:53;;;;;;;17.50;14.98;;;;;;;;;;12655191;23;20181;-68
2022/04/22 18:00:55;;;;;;;17.77;14.93;;;;;;;;;;12654195;23;20208;-69
2022/04/22 18:05:56;;;;;;;16.75;14.15;;;;;;;;;;12656342;23;20264;-70
2022/04/22 18:10:57;;;;;;;16.35;14.63;;;;;;;;;;12629934;23;20181;-69
2022/04/22 18:16:15;;;;;;;18.63;15.00;;;;;;;;;;12656959;23;20184;-67
2022/04/22 18:21:17;;;;;;;15.88;14.40;;;;;;;;;;12655973;23;20200;-72
2022/04/22 18:26:18;;;;;;;15.52;14.00;;;;;;;;;;12656127;23;20180;-72
2022/04/22 18:31:19;;;;;;;15.02;13.43;;;;;;;;;;12656028;23;20229;-72
2022/04/22 18:36:20;;;;;;;15.38;13.88;;;;;;;;;;12653901;23;20208;-71
2022/04/22 18:41:25;;;;;;;16.25;14.55;;;;;;;;;;12655310;23;20279;-68
2022/04/22 18:46:26;;;;;;;14.13;12.90;;;;;;;;;;12656017;23;20291;-67
2022/04/22 18:51:28;;;;;;;13.80;12.50;;;;;;;;;;12654859;23;20904;-69
2022/04/22 18:56:29;;;;;;;12.55;11.55;;;;;;;;;;12651922;23;20188;-70
2022/04/22 19:01:30;;;;;;;12.00;11.05;;;;;;;;;;12651500;23;20693;-69
2022/04/22 19:06:32;;;;;;;11.27;10.38;;;;;;;;;;12654256;23;20661;-68
2022/04/22 19:11:33;;;;;;;11.05;10.15;;;;;;;;;;12652119;23;20593;-71
2022/04/22 19:16:34;;;;;;;10.73;9.95;;;;;;;;;;12649830;23;20526;-68
2022/04/22 19:21:35;;;;;;;13.30;10.15;;;;;;;;;;12653832;23;20284;-70
2022/04/22 19:26:36;;;;;;;11.43;10.30;;;;;;;;;;12653328;23;20247;-69
2022/04/22 19:31:37;;;;;;;11.45;10.52;;;;;;;;;;12652623;23;20231;-69
2022/04/22 19:41:58;;;;;;;9.02;8.45;;;;;;;;;;12650324;23;20232;-71
2022/04/22 19:47:00;;;;;;;8.77;7.97;;;;;;;;;;12652756;23;20184;-67
2022/04/22 19:52:02;;;;;;;7.55;6.95;;;;;;;;;;12649405;23;20196;-67
2022/04/22 19:57:08;;;;;;;6.47;6.07;;;;;;;;;;12654003;23;20733;-68
2022/04/22 20:02:11;;;;;;;6.68;6.30;;;;;;;;;;12657792;23;20213;-67
2022/04/22 20:07:13;;;;;;;5.65;5.45;;;;;;;;;;12628748;23;20228;-70
2022/04/22 20:12:14;;;;;;;5.40;5.10;;;;;;;;;;12628406;23;20181;-69
2022/04/22 20:17:15;;;;;;;5.65;5.20;;;;;;;;;;12652727;23;20530;-69
2022/04/22 20:22:16;;;;;;;5.60;5.25;;;;;;;;;;12655247;23;20200;-68
2022/04/22 20:27:17;;;;;;;4.43;4.30;;;;;;;;;;12656968;23;20173;-69
2022/04/22 20:32:18;;;;;;;5.30;5.05;;;;;;;;;;12654802;23;20588;-68
2022/04/22 20:42:39;;;;;;;4.18;4.07;;;;;;;;;;12655026;23;20643;-72
2022/04/22 20:47:40;;;;;;;3.92;3.83;;;;;;;;;;12658441;23;20980;-71
2022/04/22 20:53:47;;;;;;;3.90;3.70;;;;;;;;;;12657584;23;20603;-71
2022/04/22 20:58:02;;;;;;;4.70;4.60;;;;;;;;;;12655592;23;20254;-72
2022/04/22 21:03:03;;;;;;;3.67;3.53;;;;;;;;;;12655356;23;20211;-70
2022/04/22 21:08:05;;;;;;;4.28;4.13;;;;;;;;;;12659069;23;20176;-68
2022/04/22 21:13:07;;;;;;;4.10;3.90;;;;;;;;;;12656729;23;20185;-71
2022/04/22 21:18:08;;;;;;;4.22;4.13;;;;;;;;;;12634320;23;20205;-71
2022/04/22 21:23:09;;;;;;;4.55;4.45;;;;;;;;;;12657198;23;20251;-71
2022/04/22 21:28:11;;;;;;;3.88;3.78;;;;;;;;;;12660981;23;20192;-71
2022/04/22 21:33:12;;;;;;;3.85;3.53;;;;;;;;;;12659374;23;20209;-71
2022/04/22 21:38:15;;;;;;;3.78;3.67;;;;;;;;;;12660827;23;20208;-71
2022/04/22 21:43:19;;;;;;;3.42;3.33;;;;;;;;;;12631909;23;20646;-71
2022/04/22 21:48:20;;;;;;;4.13;3.92;;;;;;;;;;12657748;23;20236;-71
2022/04/22 21:53:22;;;;;;;3.67;3.58;;;;;;;;;;12658138;23;20188;-70
2022/04/22 21:58:23;;;;;;;3.60;3.40;;;;;;;;;;12660249;23;20645;-70
2022/04/22 22:03:25;;;;;;;3.55;3.45;;;;;;;;;;12657894;23;20203;-70
2022/04/22 22:08:28;;;;;;;4.00;3.80;;;;;;;;;;12658073;23;20177;-71
2022/04/22 22:13:30;;;;;;;3.50;3.40;;;;;;;;;;12660191;23;20181;-70
2022/04/22 22:18:31;;;;;;;4.20;4.00;;;;;;;;;;12657900;23;20240;-71
2022/04/22 22:23:32;;;;;;;3.50;3.28;;;;;;;;;;12659105;23;20228;-70
2022/04/22 22:28:34;;;;;;;3.65;3.55;;;;;;;;;;12658253;23;20176;-70
2022/04/22 22:33:35;;;;;;;3.58;3.38;;;;;;;;;;12658749;23;20243;-71
2022/04/22 22:38:36;;;;;;;3.22;3.15;;;;;;;;;;12660065;23;20189;-71
2022/04/22 22:43:37;;;;;;;3.95;3.85;;;;;;;;;;12659343;23;20205;-70
2022/04/22 22:48:38;;;;;;;4.22;4.13;;;;;;;;;;12660548;23;20694;-71
2022/04/22 22:53:39;;;;;;;4.32;4.22;;;;;;;;;;12657169;23;20185;-71
2022/04/22 22:58:41;;;;;;;5.38;5.07;;;;;;;;;;12656208;23;20200;-71
2022/04/22 23:03:42;;;;;;;5.30;5.07;;;;;;;;;;12654463;23;20228;-71
2022/04/22 23:08:43;;;;;;;5.55;5.35;;;;;;;;;;12652072;23;20181;-71
2022/04/22 23:13:44;;;;;;;6.78;6.38;;;;;;;;;;12656744;23;20639;-71
2022/04/22 23:18:46;;;;;;;6.40;6.15;;;;;;;;;;12657299;23;20200;-71
2022/04/22 23:23:47;;;;;;;6.47;6.00;;;;;;;;;;12659441;23;20876;-71
2022/04/22 23:28:48;;;;;;;6.68;6.38;;;;;;;;;;12661212;23;20203;-72
2022/04/22 23:33:49;;;;;;;7.70;7.03;;;;;;;;;;12660787;23;20208;-72
2022/04/22 23:38:50;;;;;;;6.97;6.68;;;;;;;;;;12662275;23;20215;-71
2022/04/22 23:43:53;;;;;;;6.57;6.28;;;;;;;;;;12659424;23;20275;-71
2022/04/22 23:48:54;;;;;;;7.40;6.90;;;;;;;;;;12660991;23;20180;-71
2022/04/22 23:53:55;;;;;;;7.28;6.90;;;;;;;;;;12658903;23;20188;-70
2022/04/22 23:58:56;;;;;;;7.15;6.55;;;;;;;;;;12661872;23;20218;-71
